Time;durP1;ratioP1;P1;durP2;ratioP2;P2;SDS_P1;SDS_P2;PMS_P1;PMS_P2;Temp;Humidity;BMP_temperature;BMP_pressure;BME280_temperature;BME280_humidity;BME280_pressure;Samples;Min_cycle;Max_cycle;Signal;HPM_P1;HPM_P2
2021/12/06 00:00:59;;;;;;;10.43;2.97;;;21.50;78.60;;;;;;5071741;28;20452;-55
2021/12/06 00:03:35;;;;;;;15.07;8.50;;;21.60;75.80;;;;;;5071537;28;20032;-54
2021/12/06 00:06:04;;;;;;;16.63;5.32;;;21.80;75.20;;;;;;5071131;28;20028;-55
2021/12/06 00:08:32;;;;;;;13.93;6.32;;;21.80;75.20;;;;;;5070404;28;20025;-54
2021/12/06 00:11:06;;;;;;;15.57;7.68;;;21.70;78.20;;;;;;5071340;28;20060;-61
2021/12/06 00:13:35;;;;;;;15.15;7.78;;;21.80;78.40;;;;;;5071432;28;20025;-57
2021/12/06 00:16:07;;;;;;;17.27;7.47;;;21.90;78.10;;;;;;5071358;28;20029;-58
2021/12/06 00:18:35;;;;;;;10.90;2.72;;;21.90;75.70;;;;;;5069157;28;20085;-56
2021/12/06 00:21:04;;;;;;;17.27;6.63;;;21.80;74.00;;;;;;5071347;28;20083;-60
2021/12/06 00:23:32;;;;;;;17.95;8.32;;;21.90;77.70;;;;;;5069934;28;20107;-60
2021/12/06 00:26:00;;;;;;;14.50;5.45;;;21.90;77.70;;;;;;5067758;28;20430;-58
2021/12/06 00:28:28;;;;;;;16.58;4.55;;;22.00;74.10;;;;;;5070382;28;20039;-55
2021/12/06 00:30:56;;;;;;;16.45;7.57;;;22.10;72.90;;;;;;5071222;28;20024;-57
2021/12/06 00:33:25;;;;;;;16.95;9.95;;;22.10;76.70;;;;;;5075167;28;20021;-55
2021/12/06 00:35:55;;;;;;;16.42;6.82;;;22.10;77.30;;;;;;5074371;28;20119;-56
2021/12/06 00:39:02;;;;;;;20.30;5.68;;;22.10;75.20;;;;;;5068524;28;20071;-53
2021/12/06 00:41:30;;;;;;;14.52;7.10;;;22.20;74.20;;;;;;5054744;28;20028;-58
2021/12/06 00:43:59;;;;;;;10.50;4.28;;;22.30;75.70;;;;;;5073105;28;20535;-53
2021/12/06 00:46:27;;;;;;;17.27;7.32;;;22.10;71.70;;;;;;5073243;28;20470;-57
2021/12/06 00:48:54;;;;;;;12.27;5.35;;;22.10;76.90;;;;;;5069544;28;20017;-54
2021/12/06 00:51:22;;;;;;;12.65;4.45;;;22.00;76.00;;;;;;5071952;28;20639;-58
2021/12/06 00:53:50;;;;;;;14.30;3.60;;;22.00;72.50;;;;;;5072953;28;20125;-56
2021/12/06 00:56:18;;;;;;;12.38;3.47;;;22.00;73.40;;;;;;5072782;28;20036;-60
2021/12/06 00:58:45;;;;;;;11.63;3.97;;;22.10;72.50;;;;;;5068264;28;20485;-56
2021/12/06 01:01:13;;;;;;;15.82;5.43;;;22.10;75.30;;;;;;5073183;28;20131;-56
2021/12/06 01:03:42;;;;;;;17.65;3.95;;;22.10;75.10;;;;;;5072897;28;20028;-56
2021/12/06 01:06:11;;;;;;;12.48;4.95;;;22.20;74.80;;;;;;5071658;28;20117;-58
2021/12/06 01:08:39;;;;;;;10.57;3.75;;;22.00;76.70;;;;;;5069466;28;20033;-55
2021/12/06 01:11:08;;;;;;;11.93;4.40;;;21.80;74.30;;;;;;5073046;28;20032;-59
2021/12/06 01:13:36;;;;;;;13.20;2.95;;;21.90;77.70;;;;;;5072926;28;20028;-59
2021/12/06 01:16:06;;;;;;;13.63;4.32;;;22.00;74.10;;;;;;5072605;28;20513;-59
2021/12/06 01:18:34;;;;;;;11.25;2.13;;;22.00;75.70;;;;;;5069486;28;20080;-56
2021/12/06 01:23:46;;;;;;;11.45;2.22;;;21.80;73.50;;;;;;5072270;28;20108;-57
2021/12/06 01:29:14;;;;;;;15.57;2.33;;;21.90;76.90;;;;;;5067006;28;20043;-56
2021/12/06 01:39:11;;;;;;;16.63;3.35;;;22.20;75.00;;;;;;5071878;28;20110;-60
2021/12/06 01:39:50;;;;;;;12.95;3.20;;;22.20;71.80;;;;;;5069399;28;20038;-60
2021/12/06 01:42:17;;;;;;;11.05;3.53;;;22.20;76.00;;;;;;5074865;28;20043;-62
2021/12/06 01:44:49;;;;;;;10.77;3.38;;;22.20;77.00;;;;;;5073815;28;20546;-56
2021/12/06 01:47:17;;;;;;;;;;;22.20;77.10;;;;;;5075598;28;20025;-54
2021/12/06 01:49:52;;;;;;;9.95;4.03;;;22.30;77.10;;;;;;5075208;28;19916;-57
2021/12/06 01:52:26;;;;;;;9.27;3.38;;;22.30;77.10;;;;;;5073867;28;20494;-58
2021/12/06 01:54:54;;;;;;;9.63;3.58;;;22.40;76.80;;;;;;5074932;28;20048;-55
2021/12/06 01:57:24;;;;;;;9.77;3.28;;;22.40;76.80;;;;;;5074472;28;20036;-58
2021/12/06 01:59:53;;;;;;;11.70;3.65;;;22.40;76.60;;;;;;5074759;28;20020;-59
2021/12/06 02:02:22;;;;;;;9.75;3.80;;;22.50;76.00;;;;;;5074211;28;20387;-59
2021/12/06 02:04:50;;;;;;;9.93;3.17;;;22.50;75.80;;;;;;5074275;28;20067;-61
2021/12/06 02:07:26;;;;;;;11.15;3.70;;;22.50;75.50;;;;;;5073594;28;20025;-59
2021/12/06 02:09:55;;;;;;;8.38;2.65;;;22.50;76.30;;;;;;5074230;28;20048;-58
2021/12/06 02:12:25;;;;;;;5.60;2.45;;;22.50;75.30;;;;;;5073970;28;20032;-59
2021/12/06 02:17:42;;;;;;;10.85;3.05;;;22.50;75.20;;;;;;5074589;28;20027;-62
2021/12/06 02:20:20;;;;;;;7.00;2.17;;;22.60;75.80;;;;;;5074476;28;20042;-60
2021/12/06 02:22:47;;;;;;;9.07;2.78;;;22.50;76.20;;;;;;5074348;28;20079;-59
2021/12/06 02:25:18;;;;;;;10.05;2.55;;;22.50;76.30;;;;;;5074155;28;20063;-58
2021/12/06 02:27:48;;;;;;;10.73;2.70;;;22.50;75.60;;;;;;5073947;28;20081;-62
2021/12/06 02:30:18;;;;;;;8.88;2.45;;;22.50;76.30;;;;;;5073642;28;20054;-54
2021/12/06 02:32:48;;;;;;;8.10;2.00;;;22.50;75.30;;;;;;5073683;28;20021;-55
2021/12/06 02:35:19;;;;;;;6.53;2.70;;;22.40;75.70;;;;;;5074143;28;20037;-60
2021/12/06 02:37:48;;;;;;;9.88;2.65;;;22.40;76.50;;;;;;5073962;28;20027;-63
2021/12/06 02:40:28;;;;;;;8.40;2.42;;;22.40;76.10;;;;;;5073424;28;20024;-61
2021/12/06 02:42:57;;;;;;;6.80;2.63;;;22.40;76.20;;;;;;5073970;28;20475;-55
2021/12/06 02:45:27;;;;;;;8.15;2.90;;;22.40;76.30;;;;;;5072517;28;20112;-58
2021/12/06 02:47:56;;;;;;;26.40;12.82;;;22.40;76.90;;;;;;5073760;28;20032;-57
2021/12/06 02:50:29;;;;;;;27.33;16.33;;;22.30;77.30;;;;;;5073371;28;20039;-58
2021/12/06 02:52:56;;;;;;;63.72;39.50;;;22.30;76.30;;;;;;5063639;28;20608;-59
2021/12/06 02:55:32;;;;;;;87.30;52.42;;;22.20;77.70;;;;;;5068097;28;20057;-55
2021/12/06 02:58:14;;;;;;;100.43;63.97;;;22.30;77.40;;;;;;5070106;28;20138;-54
2021/12/06 03:00:50;;;;;;;186.90;120.85;;;22.30;77.20;;;;;;5060754;28;20104;-62
2021/12/06 03:03:19;;;;;;;205.98;135.73;;;22.30;77.00;;;;;;5068668;28;20047;-58
2021/12/06 03:05:50;;;;;;;183.27;122.70;;;22.30;76.80;;;;;;5070288;28;20459;-56
2021/12/06 03:08:46;;;;;;;208.13;132.10;;;22.30;77.30;;;;;;5070836;28;20028;-53
2021/12/06 03:11:27;;;;;;;212.18;144.43;;;22.30;77.60;;;;;;5066824;28;20045;-56
2021/12/06 03:13:54;;;;;;;201.45;133.38;;;22.40;77.70;;;;;;5070213;28;20020;-55
2021/12/06 03:16:22;;;;;;;224.82;151.40;;;22.40;77.90;;;;;;5069981;28;20029;-50
2021/12/06 03:18:54;;;;;;;202.45;134.23;;;22.40;78.00;;;;;;5070354;28;20383;-54
2021/12/06 03:21:23;;;;;;;196.43;133.65;;;22.30;77.60;;;;;;5067449;28;20035;-49
2021/12/06 03:23:51;;;;;;;190.85;130.55;;;22.30;77.70;;;;;;5070314;28;20114;-52
2021/12/06 03:26:18;;;;;;;54.72;33.95;;;22.30;77.80;;;;;;5070707;28;20032;-56
2021/12/06 03:28:47;;;;;;;154.98;99.90;;;22.10;74.10;;;;;;5070421;28;20028;-54
2021/12/06 03:31:16;;;;;;;128.32;83.07;;;22.10;77.10;;;;;;5067085;28;20025;-55
2021/12/06 03:33:49;;;;;;;129.43;80.85;;;22.10;73.50;;;;;;5069546;28;20025;-53
2021/12/06 03:36:18;;;;;;;49.40;28.15;;;22.10;71.20;;;;;;5070307;28;20111;-54
2021/12/06 03:38:45;;;;;;;85.10;52.80;;;22.10;70.60;;;;;;5070131;28;20044;-56
2021/12/06 03:41:15;;;;;;;89.13;60.17;;;22.10;76.50;;;;;;5066370;28;20113;-57
2021/12/06 03:43:43;;;;;;;140.55;86.40;;;21.90;76.30;;;;;;5066466;28;20023;-58
2021/12/06 03:46:13;;;;;;;34.67;19.52;;;22.10;71.60;;;;;;5068757;28;20115;-58
2021/12/06 03:48:41;;;;;;;61.17;36.35;;;22.00;74.60;;;;;;5068955;28;20020;-56
2021/12/06 03:51:08;;;;;;;66.65;42.42;;;22.00;75.20;;;;;;5066097;28;20052;-55
2021/12/06 03:53:36;;;;;;;39.90;24.98;;;21.90;73.40;;;;;;5069376;28;20609;-57
2021/12/06 03:56:05;;;;;;;34.45;18.85;;;21.90;71.10;;;;;;5068972;28;20041;-56
2021/12/06 03:58:34;;;;;;;102.22;63.25;;;21.70;73.90;;;;;;5070198;28;20024;-57
2021/12/06 04:01:02;;;;;;;133.93;89.18;;;21.90;75.00;;;;;;5066516;28;20386;-56
2021/12/06 04:03:33;;;;;;;113.70;72.05;;;22.00;77.80;;;;;;5069275;28;20475;-58
2021/12/06 04:06:01;;;;;;;74.32;45.00;;;22.00;75.60;;;;;;5067782;28;20028;-54
2021/12/06 04:08:29;;;;;;;64.82;38.67;;;22.00;73.20;;;;;;5069800;28;20058;-51
2021/12/06 04:10:56;;;;;;;23.55;12.00;;;22.00;75.10;;;;;;5064736;28;20024;-56
2021/12/06 04:13:24;;;;;;;13.23;3.95;;;21.90;72.20;;;;;;5067490;28;20081;-57
2021/12/06 04:15:52;;;;;;;77.70;53.63;;;21.80;70.40;;;;;;5070019;28;20036;-52
2021/12/06 04:18:19;;;;;;;39.13;21.85;;;21.90;77.00;;;;;;5069752;28;20032;-51
2021/12/06 04:20:47;;;;;;;9.68;3.80;;;21.80;71.10;;;;;;5065603;28;20116;-55
2021/12/06 04:23:15;;;;;;;26.55;13.30;;;21.60;71.50;;;;;;5068798;28;20039;-57
2021/12/06 04:25:44;;;;;;;67.65;43.85;;;21.70;73.50;;;;;;5068179;28;20429;-55
2021/12/06 04:28:14;;;;;;;55.67;34.47;;;21.70;76.80;;;;;;5069463;28;20038;-60
2021/12/06 04:30:42;;;;;;;44.78;25.45;;;21.80;72.40;;;;;;5066104;28;21762;-59
2021/12/06 04:33:10;;;;;;;49.05;30.27;;;21.80;74.50;;;;;;5069311;28;20071;-57
2021/12/06 04:35:38;;;;;;;21.33;10.82;;;21.60;75.50;;;;;;5069276;28;20078;-58
2021/12/06 04:38:07;;;;;;;25.30;14.20;;;21.70;74.30;;;;;;5068654;28;20035;-64
2021/12/06 04:40:35;;;;;;;50.92;32.10;;;21.80;72.70;;;;;;5066040;28;20060;-63
2021/12/06 04:43:03;;;;;;;25.30;12.45;;;21.80;75.70;;;;;;5069050;28;20013;-56
2021/12/06 04:45:32;;;;;;;12.00;5.57;;;21.90;70.80;;;;;;5068412;28;20033;-59
2021/12/06 04:47:59;;;;;;;41.35;26.23;;;21.60;72.30;;;;;;5069006;28;20025;-56
2021/12/06 04:50:30;;;;;;;45.47;23.52;;;21.80;74.90;;;;;;5066186;28;20425;-53
2021/12/06 04:53:11;;;;;;;48.17;29.92;;;22.00;74.80;;;;;;5067008;28;20063;-58
2021/12/06 04:55:53;;;;;;;55.90;32.47;;;22.00;75.00;;;;;;5066293;28;20060;-61
2021/12/06 04:58:28;;;;;;;44.45;25.90;;;22.10;74.70;;;;;;5068570;28;20779;-61
2021/12/06 05:01:11;;;;;;;32.83;19.80;;;22.10;74.30;;;;;;5064796;28;20035;-57
2021/12/06 05:03:40;;;;;;;37.05;21.63;;;22.20;73.70;;;;;;5067530;28;20432;-55
2021/12/06 05:06:27;;;;;;;39.20;24.60;;;22.20;74.30;;;;;;5068670;28;20118;-57
2021/12/06 05:08:58;;;;;;;38.58;24.63;;;22.20;74.70;;;;;;5069284;28;20042;-53
2021/12/06 05:11:29;;;;;;;36.92;22.55;;;22.20;75.20;;;;;;5063202;28;20028;-50
2021/12/06 05:13:58;;;;;;;33.70;21.13;;;22.20;74.90;;;;;;5068686;28;20037;-59
2021/12/06 05:16:25;;;;;;;31.38;20.52;;;22.20;74.80;;;;;;5069639;28;20040;-59
2021/12/06 05:18:53;;;;;;;38.05;21.98;;;22.20;74.90;;;;;;5069521;28;20028;-59
2021/12/06 05:21:20;;;;;;;31.92;18.02;;;22.20;75.50;;;;;;5066116;28;20029;-55
2021/12/06 05:23:48;;;;;;;30.85;19.65;;;22.20;75.20;;;;;;5072346;28;20020;-59
2021/12/06 05:26:16;;;;;;;33.25;19.52;;;22.20;75.20;;;;;;5072044;28;20119;-53
2021/12/06 05:28:46;;;;;;;33.28;20.48;;;22.20;75.10;;;;;;5069318;28;20032;-58
2021/12/06 05:31:20;;;;;;;33.42;19.98;;;22.20;75.40;;;;;;5065871;28;20087;-53
2021/12/06 05:33:59;;;;;;;33.90;19.85;;;22.20;75.20;;;;;;5071667;28;20519;-57
2021/12/06 05:36:26;;;;;;;33.45;20.52;;;22.20;75.30;;;;;;5072236;28;20043;-58
2021/12/06 05:38:55;;;;;;;28.63;18.58;;;22.20;75.50;;;;;;5071672;28;20074;-56
2021/12/06 05:41:23;;;;;;;28.20;16.25;;;22.20;75.10;;;;;;5065071;28;20510;-55
2021/12/06 05:43:51;;;;;;;26.40;15.43;;;22.30;75.00;;;;;;5072140;28;20028;-56
2021/12/06 05:46:18;;;;;;;20.95;9.25;;;22.30;75.20;;;;;;5071273;28;20490;-59
2021/12/06 05:48:46;;;;;;;9.93;2.90;;;22.10;72.50;;;;;;5072397;28;20104;-57
2021/12/06 05:51:13;;;;;;;21.00;5.50;;;22.00;73.00;;;;;;5065924;28;20025;-52
2021/12/06 05:53:41;;;;;;;28.13;16.00;;;22.00;74.30;;;;;;5071805;28;20048;-60
2021/12/06 05:56:08;;;;;;;21.42;14.10;;;22.20;76.80;;;;;;5071796;28;20051;-59
2021/12/06 05:58:36;;;;;;;23.02;10.60;;;22.10;76.50;;;;;;5071446;28;20085;-58
2021/12/06 06:01:05;;;;;;;25.73;14.48;;;22.00;73.60;;;;;;5065528;28;20115;-61
2021/12/06 06:03:32;;;;;;;19.52;12.43;;;22.00;77.30;;;;;;5071696;28;20024;-61
2021/12/06 06:05:59;;;;;;;18.35;5.32;;;22.00;74.00;;;;;;5071589;28;20371;-57
2021/12/06 06:08:27;;;;;;;11.15;2.63;;;21.80;75.40;;;;;;5070964;28;20111;-60
2021/12/06 06:10:55;;;;;;;13.48;4.30;;;21.80;74.10;;;;;;5065789;28;20460;-58
2021/12/06 06:13:22;;;;;;;11.52;4.68;;;21.80;74.00;;;;;;5071611;28;20073;-57
2021/12/06 06:15:51;;;;;;;20.05;10.25;;;21.80;74.50;;;;;;5069356;28;20043;-59
2021/12/06 06:18:24;;;;;;;13.68;4.03;;;21.90;77.70;;;;;;5071842;28;20028;-53
2021/12/06 06:20:54;;;;;;;18.05;2.95;;;21.90;74.10;;;;;;5061846;28;20089;-55
2021/12/06 06:23:23;;;;;;;14.75;8.57;;;21.80;74.00;;;;;;5069841;28;20020;-56
2021/12/06 06:25:51;;;;;;;13.52;7.68;;;21.80;77.40;;;;;;5068924;28;20032;-52
2021/12/06 06:28:18;;;;;;;11.27;4.50;;;22.00;77.40;;;;;;5071611;28;20028;-54
2021/12/06 06:30:45;;;;;;;7.93;2.20;;;21.90;74.80;;;;;;5063757;28;20046;-57
2021/12/06 06:33:23;;;;;;;16.83;5.55;;;21.80;74.60;;;;;;5071002;28;20032;-55
2021/12/06 06:35:50;;;;;;;8.88;2.47;;;21.80;78.30;;;;;;5071316;28;20044;-56
2021/12/06 06:38:18;;;;;;;18.10;5.72;;;21.70;74.90;;;;;;5070633;28;20032;-57
2021/12/06 06:40:45;;;;;;;14.57;6.50;;;21.80;75.50;;;;;;5064916;28;20062;-58
2021/12/06 06:43:13;;;;;;;14.20;6.68;;;21.90;77.80;;;;;;5070859;28;20021;-61
2021/12/06 06:45:41;;;;;;;11.75;3.40;;;21.80;77.70;;;;;;5071160;28;20032;-54
2021/12/06 06:48:08;;;;;;;7.63;2.97;;;21.70;75.20;;;;;;5070410;28;20107;-58
2021/12/06 06:50:36;;;;;;;13.05;6.57;;;21.70;75.80;;;;;;5066589;28;20025;-60
2021/12/06 06:53:03;;;;;;;12.55;4.43;;;21.80;78.40;;;;;;5073468;28;20093;-60
2021/12/06 06:55:31;;;;;;;12.95;7.68;;;21.80;77.20;;;;;;5072941;28;20131;-56
2021/12/06 06:57:59;;;;;;;8.85;4.50;;;21.90;78.40;;;;;;5073177;28;20017;-54
2021/12/06 07:00:34;;;;;;;14.70;7.35;;;21.90;77.20;;;;;;5073105;28;20379;-60
2021/12/06 07:03:04;;;;;;;11.43;3.22;;;21.90;77.40;;;;;;5073693;28;20070;-59
2021/12/06 07:05:31;;;;;;;11.25;3.45;;;21.80;75.00;;;;;;5073408;28;20033;-56
2021/12/06 07:08:00;;;;;;;10.05;2.70;;;21.60;76.50;;;;;;5073458;28;20428;-60
2021/12/06 07:10:27;;;;;;;11.98;4.57;;;21.40;76.40;;;;;;5072908;28;20029;-55
2021/12/06 07:12:57;;;;;;;10.65;2.83;;;21.30;77.20;;;;;;5073221;28;20405;-56
2021/12/06 07:15:34;;;;;;;11.02;2.78;;;21.30;77.00;;;;;;5073212;28;20498;-57
2021/12/06 07:18:03;;;;;;;24.73;11.52;;;21.20;77.10;;;;;;5071866;28;20025;-57
2021/12/06 07:20:32;;;;;;;19.92;8.65;;;21.50;78.60;;;;;;5073121;28;20020;-59
2021/12/06 07:22:59;;;;;;;11.23;4.60;;;21.60;77.90;;;;;;5073281;28;20021;-60
2021/12/06 07:25:27;;;;;;;24.08;15.48;;;21.60;75.80;;;;;;5072964;28;20025;-55
2021/12/06 07:27:56;;;;;;;30.40;20.63;;;21.70;79.30;;;;;;5071824;28;20052;-57
2021/12/06 07:30:24;;;;;;;20.25;12.60;;;21.80;79.00;;;;;;5073177;28;20086;-60
2021/12/06 07:32:52;;;;;;;32.08;20.73;;;21.80;76.20;;;;;;5072557;28;20035;-55
2021/12/06 07:35:21;;;;;;;36.30;23.48;;;21.60;78.40;;;;;;5072887;28;20032;-58
2021/12/06 07:37:49;;;;;;;54.95;35.50;;;21.80;78.20;;;;;;5072757;28;20055;-60
2021/12/06 07:40:18;;;;;;;31.33;21.00;;;21.90;79.30;;;;;;5072510;28;20079;-54
2021/12/06 07:42:46;;;;;;;31.88;20.67;;;21.90;77.80;;;;;;5072458;28;20112;-56
2021/12/06 07:45:15;;;;;;;51.33;33.67;;;22.00;77.70;;;;;;5072443;28;20468;-56
2021/12/06 07:47:43;;;;;;;56.78;32.65;;;22.00;78.30;;;;;;5072801;28;20024;-59
2021/12/06 07:50:14;;;;;;;68.68;36.72;;;22.10;79.10;;;;;;5072463;28;20032;-58
2021/12/06 07:52:42;;;;;;;94.82;51.28;;;22.10;81.30;;;;;;5063975;28;20160;-52
2021/12/06 07:55:13;;;;;;;90.93;54.53;;;22.20;79.50;;;;;;5068233;28;20368;-56
2021/12/06 07:57:42;;;;;;;93.43;56.67;;;22.20;79.60;;;;;;5069932;28;20051;-56
2021/12/06 08:00:20;;;;;;;91.72;56.30;;;22.30;78.70;;;;;;5069708;28;20821;-61
2021/12/06 08:02:48;;;;;;;60.92;30.15;;;22.40;79.40;;;;;;5067761;28;20418;-59
2021/12/06 08:05:34;;;;;;;66.95;41.15;;;22.20;77.30;;;;;;5065782;28;20028;-56
2021/12/06 08:08:09;;;;;;;73.78;39.85;;;22.20;79.10;;;;;;5069115;28;20070;-63
2021/12/06 08:10:43;;;;;;;63.13;35.35;;;22.20;81.70;;;;;;5071177;28;20070;-64
2021/12/06 08:13:13;;;;;;;52.13;26.48;;;22.20;81.80;;;;;;5072823;28;20024;-67
2021/12/06 08:15:41;;;;;;;101.68;56.25;;;22.20;81.10;;;;;;5072242;28;20056;-68
2021/12/06 08:18:09;;;;;;;63.67;29.30;;;22.20;82.00;;;;;;5072787;28;20024;-66
2021/12/06 08:20:38;;;;;;;73.40;40.78;;;22.20;80.10;;;;;;5072587;28;20024;-65
2021/12/06 08:23:06;;;;;;;40.63;22.50;;;22.20;80.80;;;;;;5071743;28;20032;-61
2021/12/06 08:25:35;;;;;;;42.75;19.23;;;22.00;80.50;;;;;;5072545;28;20077;-67
2021/12/06 08:28:03;;;;;;;44.28;18.83;;;22.00;81.10;;;;;;5072325;28;20481;-59
2021/12/06 08:30:31;;;;;;;26.63;13.77;;;22.10;83.50;;;;;;5072515;28;20480;-66
2021/12/06 08:33:02;;;;;;;19.70;11.65;;;22.10;82.50;;;;;;5072223;28;20024;-65
2021/12/06 08:35:30;;;;;;;26.15;12.32;;;22.10;82.10;;;;;;5071254;28;20090;-65
2021/12/06 08:37:59;;;;;;;21.88;7.45;;;22.00;83.90;;;;;;5071089;28;20012;-66
2021/12/06 08:40:28;;;;;;;16.38;7.47;;;22.10;82.00;;;;;;5072380;28;20054;-63
2021/12/06 08:42:57;;;;;;;25.58;7.65;;;22.10;83.70;;;;;;5072897;28;20082;-64
2021/12/06 08:45:26;;;;;;;17.90;7.43;;;21.90;83.90;;;;;;5072926;28;20025;-66
2021/12/06 08:47:55;;;;;;;18.58;5.75;;;21.90;82.20;;;;;;5071813;28;20016;-64
2021/12/06 08:50:24;;;;;;;18.30;6.05;;;21.90;82.50;;;;;;5073011;28;20107;-66
2021/12/06 08:52:54;;;;;;;12.88;4.65;;;21.90;84.80;;;;;;5074090;28;20082;-66
2021/12/06 08:55:22;;;;;;;23.10;9.13;;;22.00;84.60;;;;;;5075743;28;20083;-62
2021/12/06 08:57:51;;;;;;;13.50;6.85;;;22.10;86.50;;;;;;5076395;28;20529;-65
2021/12/06 09:00:22;;;;;;;28.40;9.05;;;22.10;86.50;;;;;;5076285;28;20024;-64
2021/12/06 09:02:49;;;;;;;21.73;9.73;;;22.10;86.90;;;;;;5076150;28;20020;-66
2021/12/06 09:05:17;;;;;;;19.05;7.43;;;22.10;86.80;;;;;;5076403;28;20356;-64
2021/12/06 09:07:45;;;;;;;21.55;6.13;;;22.20;88.10;;;;;;5076065;28;20066;-66
2021/12/06 09:10:13;;;;;;;25.83;5.32;;;22.20;85.40;;;;;;5074437;28;20032;-60
2021/12/06 09:12:41;;;;;;;42.53;6.60;;;22.10;83.90;;;;;;5076150;28;20418;-62
2021/12/06 09:15:15;;;;;;;17.05;6.25;;;22.00;85.50;;;;;;5076080;28;20237;-61
2021/12/06 09:17:43;;;;;;;14.63;5.32;;;22.00;86.90;;;;;;5076189;28;20055;-58
2021/12/06 09:20:13;;;;;;;18.25;5.53;;;22.00;86.60;;;;;;5075606;28;20021;-60
2021/12/06 09:22:41;;;;;;;14.75;5.18;;;22.00;86.30;;;;;;5076070;28;20145;-62
2021/12/06 09:25:10;;;;;;;17.17;4.75;;;22.00;86.00;;;;;;5075672;28;20055;-62
2021/12/06 09:27:38;;;;;;;10.43;4.40;;;22.00;86.60;;;;;;5072513;28;20017;-54
2021/12/06 09:30:08;;;;;;;18.02;6.80;;;21.90;86.60;;;;;;5065937;28;20033;-58
2021/12/06 09:32:36;;;;;;;20.83;6.72;;;22.00;87.50;;;;;;5069773;28;20029;-56
2021/12/06 09:35:05;;;;;;;23.85;7.28;;;22.00;87.40;;;;;;5071670;28;20032;-53
2021/12/06 09:37:36;;;;;;;19.15;7.03;;;22.00;86.50;;;;;;5070605;28;20024;-56
2021/12/06 09:40:06;;;;;;;17.00;7.90;;;22.00;85.90;;;;;;5070038;28;20037;-60
2021/12/06 09:42:36;;;;;;;18.70;9.38;;;22.10;85.70;;;;;;5066118;28;20075;-59
2021/12/06 09:45:06;;;;;;;19.90;8.23;;;22.10;85.70;;;;;;5067664;28;20036;-58
2021/12/06 09:47:34;;;;;;;18.73;7.65;;;22.00;85.30;;;;;;5070299;28;20028;-58
2021/12/06 09:50:03;;;;;;;20.45;8.02;;;22.00;85.40;;;;;;5072733;28;20036;-57
2021/12/06 09:52:31;;;;;;;20.17;8.27;;;22.00;85.30;;;;;;5066422;28;20024;-56
2021/12/06 09:54:58;;;;;;;20.45;9.07;;;22.00;85.30;;;;;;5068688;28;20048;-51
2021/12/06 09:57:27;;;;;;;20.88;7.85;;;22.00;85.30;;;;;;5072248;28;20025;-53
2021/12/06 09:59:55;;;;;;;18.40;8.15;;;22.00;85.30;;;;;;5070857;28;20099;-53
2021/12/06 10:02:23;;;;;;;14.13;7.40;;;22.00;85.30;;;;;;5067046;28;20029;-56
2021/12/06 10:04:54;;;;;;;15.48;7.78;;;22.00;85.20;;;;;;5071840;28;20025;-53
2021/12/06 10:07:23;;;;;;;19.60;7.95;;;21.90;85.30;;;;;;5072727;28;20031;-56
2021/12/06 10:09:51;;;;;;;18.50;7.25;;;22.00;85.40;;;;;;5072295;28;20037;-49
2021/12/06 10:12:21;;;;;;;17.25;8.07;;;21.90;85.30;;;;;;5068933;28;20111;-56
2021/12/06 10:14:49;;;;;;;13.77;6.57;;;21.90;85.30;;;;;;5071660;28;20036;-56
2021/12/06 10:17:18;;;;;;;17.38;7.13;;;21.90;85.10;;;;;;5072917;28;20069;-55
2021/12/06 10:19:47;;;;;;;15.68;8.15;;;21.90;85.10;;;;;;5070453;28;20031;-53
2021/12/06 10:22:15;;;;;;;16.13;6.80;;;21.90;85.30;;;;;;5069082;28;20051;-53
2021/12/06 10:24:51;;;;;;;17.63;6.95;;;21.90;83.90;;;;;;5072340;28;20020;-54
2021/12/06 10:27:19;;;;;;;17.70;7.32;;;21.80;85.10;;;;;;5071831;28;20025;-58
2021/12/06 10:29:53;;;;;;;14.18;7.05;;;21.90;85.30;;;;;;5072208;28;20046;-54
2021/12/06 10:32:26;;;;;;;13.55;7.53;;;21.80;85.20;;;;;;5069053;28;20154;-58
2021/12/06 10:35:12;;;;;;;14.50;6.20;;;21.80;85.30;;;;;;5071924;28;20029;-59
2021/12/06 10:37:45;;;;;;;15.27;6.80;;;21.80;84.90;;;;;;5070702;28;20028;-56
2021/12/06 10:40:26;;;;;;;17.63;6.80;;;21.80;85.30;;;;;;5071116;28;20032;-53
2021/12/06 10:42:54;;;;;;;15.10;6.40;;;21.80;85.10;;;;;;5065225;28;20024;-53
2021/12/06 10:45:27;;;;;;;12.27;6.68;;;21.80;85.40;;;;;;5071195;28;20111;-53
2021/12/06 10:48:11;;;;;;;15.00;7.40;;;21.80;85.30;;;;;;5067798;28;20020;-58
2021/12/06 10:51:06;;;;;;;14.18;6.38;;;21.80;85.20;;;;;;5070015;28;20553;-57
2021/12/06 10:53:46;;;;;;;13.13;6.65;;;21.80;85.20;;;;;;5068399;28;20028;-58
2021/12/06 10:56:20;;;;;;;12.38;6.82;;;21.80;85.20;;;;;;5070698;28;20040;-52
2021/12/06 10:58:54;;;;;;;15.30;6.13;;;21.80;85.20;;;;;;5072565;28;20555;-50
2021/12/06 11:01:27;;;;;;;12.25;5.60;;;21.70;85.20;;;;;;5069957;28;20165;-54
2021/12/06 11:03:56;;;;;;;11.45;6.00;;;21.70;85.10;;;;;;5071767;28;20027;-52
2021/12/06 11:06:42;;;;;;;10.65;5.75;;;21.80;85.20;;;;;;5071985;28;20025;-51
2021/12/06 11:09:12;;;;;;;15.05;6.95;;;21.80;85.10;;;;;;5070285;28;20032;-55
2021/12/06 11:11:44;;;;;;;13.20;5.85;;;21.70;84.90;;;;;;5067077;28;20029;-56
2021/12/06 11:14:15;;;;;;;9.85;5.32;;;21.70;84.90;;;;;;5071047;28;20294;-58
2021/12/06 11:16:45;;;;;;;14.23;7.05;;;21.70;85.00;;;;;;5070370;28;20498;-53
2021/12/06 11:19:18;;;;;;;11.85;5.97;;;21.70;85.00;;;;;;5071291;28;20027;-58
2021/12/06 11:21:51;;;;;;;13.30;6.00;;;21.70;85.00;;;;;;5067785;28;20033;-54
2021/12/06 11:24:23;;;;;;;14.13;5.80;;;21.70;84.90;;;;;;5069661;28;20075;-56
2021/12/06 11:27:09;;;;;;;11.50;5.45;;;21.70;85.00;;;;;;5070878;28;20021;-53
2021/12/06 11:29:57;;;;;;;12.23;5.60;;;21.70;85.00;;;;;;5070124;28;20111;-55
2021/12/06 11:32:32;;;;;;;9.27;5.07;;;21.70;84.90;;;;;;5067809;28;20063;-55
2021/12/06 11:35:11;;;;;;;10.18;4.80;;;21.70;85.00;;;;;;5069854;28;20036;-59
2021/12/06 11:37:46;;;;;;;13.48;6.30;;;21.70;85.50;;;;;;5067922;28;20020;-57
2021/12/06 11:40:13;;;;;;;13.90;6.03;;;21.70;84.90;;;;;;5070227;28;20078;-54
2021/12/06 11:42:56;;;;;;;15.27;5.60;;;21.70;85.00;;;;;;5067803;28;20052;-51
2021/12/06 11:45:36;;;;;;;12.25;5.30;;;21.70;85.00;;;;;;5070850;28;20454;-52
2021/12/06 11:48:12;;;;;;;12.30;5.20;;;21.70;85.20;;;;;;5067115;28;20056;-57
2021/12/06 11:50:43;;;;;;;10.02;5.30;;;21.70;85.20;;;;;;5068025;28;20116;-59
2021/12/06 11:53:11;;;;;;;10.38;5.10;;;21.70;85.10;;;;;;5066398;28;20025;-57
2021/12/06 11:55:50;;;;;;;16.38;4.60;;;21.70;85.20;;;;;;5070616;28;20094;-58
2021/12/06 11:58:24;;;;;;;8.45;4.40;;;21.70;85.10;;;;;;5072959;28;20045;-56
2021/12/06 12:01:15;;;;;;;12.18;5.28;;;21.70;85.20;;;;;;5072960;28;20613;-55
2021/12/06 12:03:45;;;;;;;10.88;5.25;;;21.70;85.10;;;;;;5072833;28;20040;-56
2021/12/06 12:06:21;;;;;;;10.27;4.45;;;21.70;85.10;;;;;;5072876;28;20036;-57
2021/12/06 12:09:00;;;;;;;10.32;4.35;;;21.70;85.10;;;;;;5072991;28;20032;-58
2021/12/06 12:11:27;;;;;;;10.70;4.72;;;21.60;85.70;;;;;;5072867;28;20017;-59
2021/12/06 12:13:56;;;;;;;9.02;4.38;;;21.60;85.20;;;;;;5072679;28;20105;-59
2021/12/06 12:16:24;;;;;;;10.05;4.07;;;21.70;85.20;;;;;;5072608;28;20040;-56
2021/12/06 12:18:52;;;;;;;7.47;5.03;;;21.60;85.20;;;;;;5072708;28;20028;-60
2021/12/06 12:21:20;;;;;;;10.65;4.82;;;21.60;85.30;;;;;;5072752;28;20127;-59
2021/12/06 12:23:47;;;;;;;8.75;4.10;;;21.60;85.40;;;;;;5072810;28;20373;-60
2021/12/06 12:26:19;;;;;;;12.60;4.55;;;21.60;85.50;;;;;;5072550;28;20025;-55
2021/12/06 12:28:58;;;;;;;11.98;4.25;;;21.60;85.50;;;;;;5075871;28;20059;-56
2021/12/06 12:31:28;;;;;;;6.60;3.70;;;21.50;85.50;;;;;;5076734;28;20087;-61
2021/12/06 12:33:58;;;;;;;6.95;3.70;;;21.50;85.50;;;;;;5076472;28;20036;-59
2021/12/06 12:36:25;;;;;;;10.02;4.40;;;21.50;85.50;;;;;;5075243;28;20115;-60
2021/12/06 12:38:56;;;;;;;11.93;4.18;;;21.50;85.60;;;;;;5072672;28;20075;-57
2021/12/06 12:41:28;;;;;;;10.95;4.47;;;21.50;85.50;;;;;;5076530;28;20079;-58
2021/12/06 12:44:10;;;;;;;7.00;3.70;;;21.50;85.50;;;;;;5076403;28;20032;-58
2021/12/06 12:46:41;;;;;;;8.45;4.35;;;21.40;85.50;;;;;;5076260;28;20383;-60
2021/12/06 12:49:16;;;;;;;9.35;5.22;;;21.40;85.50;;;;;;5076305;28;20104;-55
2021/12/06 12:51:53;;;;;;;9.05;3.83;;;21.40;85.60;;;;;;5076298;28;20471;-53
2021/12/06 12:54:28;;;;;;;12.73;4.00;;;21.50;85.60;;;;;;5075752;28;20044;-59
2021/12/06 12:57:01;;;;;;;7.40;3.25;;;21.40;86.20;;;;;;5076168;28;20098;-57
2021/12/06 12:59:48;;;;;;;6.88;3.70;;;21.40;85.60;;;;;;5076244;28;20025;-59
2021/12/06 13:02:29;;;;;;;6.15;3.80;;;21.40;85.70;;;;;;5075515;28;20037;-56
2021/12/06 13:04:59;;;;;;;8.35;3.53;;;21.40;85.70;;;;;;5065508;28;20024;-51